sensor_id;sensor_type;location;lat;lon;timestamp;temperature;humidity
13433;DHT22;6789;47.678;9.158;2023-05-17T00:05:08;10.60;99.90
13433;DHT22;6789;47.678;9.158;2023-05-17T00:10:02;10.70;99.90
13433;DHT22;6789;47.678;9.158;2023-05-17T00:26:58;10.60;99.90
13433;DHT22;6789;47.678;9.158;2023-05-17T00:32:06;10.60;99.90
13433;DHT22;6789;47.678;9.158;2023-05-17T00:42:27;10.50;99.90
13433;DHT22;6789;47.678;9.158;2023-05-17T00:53:09;10.60;99.90
13433;DHT22;6789;47.678;9.158;2023-05-17T00:58:21;10.50;99.90
13433;DHT22;6789;47.678;9.158;2023-05-17T01:03:15;10.40;99.90
13433;DHT22;6789;47.678;9.158;2023-05-17T01:29:40;10.30;99.90
13433;DHT22;6789;47.678;9.158;2023-05-17T01:47:49;10.20;99.90
13433;DHT22;6789;47.678;9.158;2023-05-17T01:53:09;10.10;99.90
13433;DHT22;6789;47.678;9.158;2023-05-17T02:14:15;10.10;99.90
13433;DHT22;6789;47.678;9.158;2023-05-17T02:25:25;10.00;99.90
13433;DHT22;6789;47.678;9.158;2023-05-17T02:31:38;9.90;99.90
13433;DHT22;6789;47.678;9.158;2023-05-17T02:36:49;10.00;99.90
13433;DHT22;6789;47.678;9.158;2023-05-17T02:42:01;9.80;99.90
13433;DHT22;6789;47.678;9.158;2023-05-17T03:03:52;9.80;99.90
13433;DHT22;6789;47.678;9.158;2023-05-17T03:15:21;9.80;99.90
13433;DHT22;6789;47.678;9.158;2023-05-17T03:32:57;9.70;99.90
13433;DHT22;6789;47.678;9.158;2023-05-17T03:44:20;9.70;99.90
13433;DHT22;6789;47.678;9.158;2023-05-17T03:49:30;9.70;99.90
13433;DHT22;6789;47.678;9.158;2023-05-17T03:59:49;9.60;99.90
13433;DHT22;6789;47.678;9.158;2023-05-17T04:04:55;9.60;99.90
13433;DHT22;6789;47.678;9.158;2023-05-17T04:09:47;9.50;99.90
13433;DHT22;6789;47.678;9.158;2023-05-17T04:14:39;9.50;99.90
13433;DHT22;6789;47.678;9.158;2023-05-17T04:19:32;9.50;99.90
13433;DHT22;6789;47.678;9.158;2023-05-17T04:24:24;9.50;99.90
13433;DHT22;6789;47.678;9.158;2023-05-17T04:29:16;9.40;99.90
13433;DHT22;6789;47.678;9.158;2023-05-17T04:34:08;9.40;99.90
13433;DHT22;6789;47.678;9.158;2023-05-17T04:39:00;9.40;99.90
13433;DHT22;6789;47.678;9.158;2023-05-17T04:43:53;9.40;99.90
13433;DHT22;6789;47.678;9.158;2023-05-17T04:48:59;9.30;99.90
13433;DHT22;6789;47.678;9.158;2023-05-17T04:54:05;9.30;99.90
13433;DHT22;6789;47.678;9.158;2023-05-17T04:59:02;9.30;99.90
13433;DHT22;6789;47.678;9.158;2023-05-17T05:03:54;9.40;99.90
13433;DHT22;6789;47.678;9.158;2023-05-17T05:08:46;9.40;99.90
13433;DHT22;6789;47.678;9.158;2023-05-17T05:13:52;9.40;99.90
13433;DHT22;6789;47.678;9.158;2023-05-17T05:18:57;9.40;99.90
13433;DHT22;6789;47.678;9.158;2023-05-17T05:23:50;9.40;99.90
13433;DHT22;6789;47.678;9.158;2023-05-17T05:28:49;9.40;99.90
13433;DHT22;6789;47.678;9.158;2023-05-17T05:33:41;9.40;99.90
13433;DHT22;6789;47.678;9.158;2023-05-17T05:38:33;9.30;99.90
13433;DHT22;6789;47.678;9.158;2023-05-17T05:43:40;9.40;99.90
13433;DHT22;6789;47.678;9.158;2023-05-17T05:48:46;9.40;99.90
13433;DHT22;6789;47.678;9.158;2023-05-17T05:53:52;9.40;99.90
13433;DHT22;6789;47.678;9.158;2023-05-17T05:58:58;9.40;99.90
13433;DHT22;6789;47.678;9.158;2023-05-17T06:04:04;9.50;99.90
13433;DHT22;6789;47.678;9.158;2023-05-17T06:09:15;9.40;99.90
13433;DHT22;6789;47.678;9.158;2023-05-17T06:14:22;9.40;99.90
13433;DHT22;6789;47.678;9.158;2023-05-17T06:19:30;9.40;99.90
13433;DHT22;6789;47.678;9.158;2023-05-17T06:24:36;9.50;99.90
13433;DHT22;6789;47.678;9.158;2023-05-17T06:29:44;9.60;99.90
13433;DHT22;6789;47.678;9.158;2023-05-17T06:35:11;9.60;99.90
13433;DHT22;6789;47.678;9.158;2023-05-17T06:40:22;9.80;99.90
13433;DHT22;6789;47.678;9.158;2023-05-17T06:45:29;9.80;99.90
13433;DHT22;6789;47.678;9.158;2023-05-17T06:50:35;9.80;99.90
13433;DHT22;6789;47.678;9.158;2023-05-17T06:55:41;9.80;99.90
13433;DHT22;6789;47.678;9.158;2023-05-17T07:00:50;9.90;99.90
13433;DHT22;6789;47.678;9.158;2023-05-17T07:05:56;9.90;99.90
13433;DHT22;6789;47.678;9.158;2023-05-17T07:10:56;10.00;99.90
13433;DHT22;6789;47.678;9.158;2023-05-17T07:16:07;10.20;99.90
13433;DHT22;6789;47.678;9.158;2023-05-17T07:21:15;10.50;99.90
13433;DHT22;6789;47.678;9.158;2023-05-17T07:26:21;10.70;99.90
13433;DHT22;6789;47.678;9.158;2023-05-17T07:31:43;10.80;99.90
13433;DHT22;6789;47.678;9.158;2023-05-17T07:36:52;11.00;99.90
13433;DHT22;6789;47.678;9.158;2023-05-17T07:41:59;11.20;99.90
13433;DHT22;6789;47.678;9.158;2023-05-17T07:47:06;11.10;99.90
13433;DHT22;6789;47.678;9.158;2023-05-17T07:52:12;11.50;99.90
13433;DHT22;6789;47.678;9.158;2023-05-17T07:57:27;11.80;99.90
13433;DHT22;6789;47.678;9.158;2023-05-17T08:02:35;12.00;99.90
13433;DHT22;6789;47.678;9.158;2023-05-17T08:07:43;11.90;99.90
13433;DHT22;6789;47.678;9.158;2023-05-17T08:12:50;12.00;99.90
13433;DHT22;6789;47.678;9.158;2023-05-17T08:17:57;12.00;99.90
13433;DHT22;6789;47.678;9.158;2023-05-17T08:30:01;12.30;99.90
13433;DHT22;6789;47.678;9.158;2023-05-17T08:35:08;12.10;99.90
13433;DHT22;6789;47.678;9.158;2023-05-17T08:40:10;11.90;99.90
13433;DHT22;6789;47.678;9.158;2023-05-17T08:45:16;12.10;99.90
13433;DHT22;6789;47.678;9.158;2023-05-17T08:50:23;12.10;99.90
13433;DHT22;6789;47.678;9.158;2023-05-17T08:55:35;12.10;99.90
13433;DHT22;6789;47.678;9.158;2023-05-17T09:00:47;12.10;99.90
13433;DHT22;6789;47.678;9.158;2023-05-17T09:06:34;12.30;99.90
13433;DHT22;6789;47.678;9.158;2023-05-17T09:12:19;12.70;99.90
13433;DHT22;6789;47.678;9.158;2023-05-17T09:17:29;12.80;99.90
13433;DHT22;6789;47.678;9.158;2023-05-17T09:22:37;13.20;99.90
13433;DHT22;6789;47.678;9.158;2023-05-17T09:27:55;13.00;99.90
13433;DHT22;6789;47.678;9.158;2023-05-17T09:33:06;13.10;99.90
13433;DHT22;6789;47.678;9.158;2023-05-17T09:38:25;13.40;99.90
13433;DHT22;6789;47.678;9.158;2023-05-17T09:43:35;13.40;99.90
13433;DHT22;6789;47.678;9.158;2023-05-17T09:48:42;13.50;99.90
13433;DHT22;6789;47.678;9.158;2023-05-17T09:53:53;13.50;99.90
13433;DHT22;6789;47.678;9.158;2023-05-17T09:59:09;13.30;99.90
13433;DHT22;6789;47.678;9.158;2023-05-17T10:04:08;13.40;99.90
13433;DHT22;6789;47.678;9.158;2023-05-17T10:09:20;13.90;99.90
13433;DHT22;6789;47.678;9.158;2023-05-17T10:14:29;14.00;99.90
13433;DHT22;6789;47.678;9.158;2023-05-17T10:19:42;14.00;99.90
13433;DHT22;6789;47.678;9.158;2023-05-17T10:24:59;13.40;99.90
13433;DHT22;6789;47.678;9.158;2023-05-17T10:35:34;13.70;99.90
13433;DHT22;6789;47.678;9.158;2023-05-17T10:40:46;13.80;99.90
13433;DHT22;6789;47.678;9.158;2023-05-17T10:51:05;13.90;99.90
13433;DHT22;6789;47.678;9.158;2023-05-17T10:56:50;14.00;99.90
13433;DHT22;6789;47.678;9.158;2023-05-17T11:02:03;13.60;99.90
13433;DHT22;6789;47.678;9.158;2023-05-17T11:12:50;14.00;99.90
13433;DHT22;6789;47.678;9.158;2023-05-17T11:17:59;14.10;99.90
13433;DHT22;6789;47.678;9.158;2023-05-17T11:23:14;14.00;99.90
13433;DHT22;6789;47.678;9.158;2023-05-17T11:28:21;14.00;99.90
13433;DHT22;6789;47.678;9.158;2023-05-17T11:33:43;13.90;99.90
13433;DHT22;6789;47.678;9.158;2023-05-17T11:39:11;14.50;99.90
13433;DHT22;6789;47.678;9.158;2023-05-17T11:44:33;14.10;99.90
13433;DHT22;6789;47.678;9.158;2023-05-17T11:49:32;14.30;99.90
13433;DHT22;6789;47.678;9.158;2023-05-17T11:55:11;14.00;99.90
13433;DHT22;6789;47.678;9.158;2023-05-17T12:00:33;13.90;99.90
13433;DHT22;6789;47.678;9.158;2023-05-17T12:05:45;14.10;99.90
13433;DHT22;6789;47.678;9.158;2023-05-17T12:10:51;14.50;99.90
13433;DHT22;6789;47.678;9.158;2023-05-17T12:16:08;14.70;99.90
13433;DHT22;6789;47.678;9.158;2023-05-17T12:21:27;14.70;99.90
13433;DHT22;6789;47.678;9.158;2023-05-17T12:26:51;15.00;99.90
13433;DHT22;6789;47.678;9.158;2023-05-17T12:32:02;15.10;99.90
13433;DHT22;6789;47.678;9.158;2023-05-17T12:37:06;15.00;99.90
13433;DHT22;6789;47.678;9.158;2023-05-17T12:42:16;15.00;99.90
13433;DHT22;6789;47.678;9.158;2023-05-17T12:47:09;14.70;99.90
13433;DHT22;6789;47.678;9.158;2023-05-17T12:52:51;14.70;99.90
13433;DHT22;6789;47.678;9.158;2023-05-17T12:58:01;14.70;99.90
13433;DHT22;6789;47.678;9.158;2023-05-17T13:03:09;15.30;99.90
13433;DHT22;6789;47.678;9.158;2023-05-17T13:08:42;15.20;99.90
13433;DHT22;6789;47.678;9.158;2023-05-17T13:13:48;15.80;99.90
13433;DHT22;6789;47.678;9.158;2023-05-17T13:18:55;15.40;99.90
13433;DHT22;6789;47.678;9.158;2023-05-17T13:24:01;15.10;99.90
13433;DHT22;6789;47.678;9.158;2023-05-17T13:29:08;15.60;99.90
13433;DHT22;6789;47.678;9.158;2023-05-17T13:34:17;15.20;99.90
13433;DHT22;6789;47.678;9.158;2023-05-17T13:39:17;15.20;99.90
13433;DHT22;6789;47.678;9.158;2023-05-17T13:44:25;15.20;99.90
13433;DHT22;6789;47.678;9.158;2023-05-17T13:49:45;15.60;99.90
13433;DHT22;6789;47.678;9.158;2023-05-17T13:54:55;15.10;99.90
13433;DHT22;6789;47.678;9.158;2023-05-17T14:00:52;14.90;99.90
13433;DHT22;6789;47.678;9.158;2023-05-17T14:05:58;14.60;99.90
13433;DHT22;6789;47.678;9.158;2023-05-17T14:11:04;15.10;99.90
13433;DHT22;6789;47.678;9.158;2023-05-17T14:16:21;15.50;99.90
13433;DHT22;6789;47.678;9.158;2023-05-17T14:21:27;15.50;99.90
13433;DHT22;6789;47.678;9.158;2023-05-17T14:31:40;15.00;99.90
13433;DHT22;6789;47.678;9.158;2023-05-17T14:36:47;15.20;99.90
13433;DHT22;6789;47.678;9.158;2023-05-17T14:41:55;15.00;99.90
13433;DHT22;6789;47.678;9.158;2023-05-17T14:47:02;14.80;99.90
13433;DHT22;6789;47.678;9.158;2023-05-17T14:52:10;14.70;99.90
13433;DHT22;6789;47.678;9.158;2023-05-17T14:57:19;15.00;99.90
13433;DHT22;6789;47.678;9.158;2023-05-17T15:02:26;15.10;99.90
13433;DHT22;6789;47.678;9.158;2023-05-17T15:07:36;15.00;99.90
13433;DHT22;6789;47.678;9.158;2023-05-17T15:12:42;14.70;99.90
13433;DHT22;6789;47.678;9.158;2023-05-17T15:17:48;14.60;99.90
13433;DHT22;6789;47.678;9.158;2023-05-17T15:23:09;14.70;99.90
13433;DHT22;6789;47.678;9.158;2023-05-17T15:28:25;14.90;99.90
13433;DHT22;6789;47.678;9.158;2023-05-17T15:33:32;14.70;99.90
13433;DHT22;6789;47.678;9.158;2023-05-17T15:38:38;14.90;99.90
13433;DHT22;6789;47.678;9.158;2023-05-17T15:43:44;14.70;99.90
13433;DHT22;6789;47.678;9.158;2023-05-17T15:49:01;14.80;99.90
13433;DHT22;6789;47.678;9.158;2023-05-17T15:54:11;14.40;99.90
13433;DHT22;6789;47.678;9.158;2023-05-17T15:59:29;14.50;99.90
13433;DHT22;6789;47.678;9.158;2023-05-17T16:04:36;14.60;99.90
13433;DHT22;6789;47.678;9.158;2023-05-17T16:09:43;14.60;99.90
13433;DHT22;6789;47.678;9.158;2023-05-17T16:14:49;14.90;99.90
13433;DHT22;6789;47.678;9.158;2023-05-17T16:19:55;15.00;99.90
13433;DHT22;6789;47.678;9.158;2023-05-17T16:25:03;14.90;99.90
13433;DHT22;6789;47.678;9.158;2023-05-17T16:29:59;14.90;99.90
13433;DHT22;6789;47.678;9.158;2023-05-17T16:35:31;15.00;99.90
13433;DHT22;6789;47.678;9.158;2023-05-17T16:40:38;14.80;99.90
13433;DHT22;6789;47.678;9.158;2023-05-17T16:45:46;14.80;99.90
13433;DHT22;6789;47.678;9.158;2023-05-17T16:50:54;14.50;99.90
13433;DHT22;6789;47.678;9.158;2023-05-17T16:56:03;14.50;99.90
13433;DHT22;6789;47.678;9.158;2023-05-17T17:01:09;14.40;99.90
13433;DHT22;6789;47.678;9.158;2023-05-17T17:06:16;14.20;99.90
13433;DHT22;6789;47.678;9.158;2023-05-17T17:11:22;14.20;99.90
13433;DHT22;6789;47.678;9.158;2023-05-17T17:16:28;14.00;99.90
13433;DHT22;6789;47.678;9.158;2023-05-17T17:22:05;13.90;99.90
13433;DHT22;6789;47.678;9.158;2023-05-17T17:27:11;14.00;99.90
13433;DHT22;6789;47.678;9.158;2023-05-17T17:32:18;13.90;99.90
13433;DHT22;6789;47.678;9.158;2023-05-17T17:37:24;13.90;99.90
13433;DHT22;6789;47.678;9.158;2023-05-17T17:42:30;13.90;99.90
13433;DHT22;6789;47.678;9.158;2023-05-17T17:47:37;13.90;99.90
13433;DHT22;6789;47.678;9.158;2023-05-17T17:52:29;13.60;99.90
13433;DHT22;6789;47.678;9.158;2023-05-17T17:57:35;13.60;99.90
13433;DHT22;6789;47.678;9.158;2023-05-17T18:02:41;13.50;99.90
13433;DHT22;6789;47.678;9.158;2023-05-17T18:07:47;13.40;99.90
13433;DHT22;6789;47.678;9.158;2023-05-17T18:12:41;13.40;99.90
13433;DHT22;6789;47.678;9.158;2023-05-17T18:17:35;13.30;99.90
13433;DHT22;6789;47.678;9.158;2023-05-17T18:22:42;13.20;99.90
13433;DHT22;6789;47.678;9.158;2023-05-17T18:27:39;13.10;99.90
13433;DHT22;6789;47.678;9.158;2023-05-17T18:32:45;12.90;99.90
13433;DHT22;6789;47.678;9.158;2023-05-17T18:37:52;12.90;99.90
13433;DHT22;6789;47.678;9.158;2023-05-17T18:43:29;12.90;99.90
13433;DHT22;6789;47.678;9.158;2023-05-17T18:48:29;12.70;99.90
13433;DHT22;6789;47.678;9.158;2023-05-17T18:53:39;12.70;99.90
13433;DHT22;6789;47.678;9.158;2023-05-17T18:58:45;12.70;99.90
13433;DHT22;6789;47.678;9.158;2023-05-17T19:03:51;12.40;99.90
13433;DHT22;6789;47.678;9.158;2023-05-17T19:09:00;12.40;99.90
13433;DHT22;6789;47.678;9.158;2023-05-17T19:13:56;12.20;99.90
13433;DHT22;6789;47.678;9.158;2023-05-17T19:18:48;12.10;99.90
13433;DHT22;6789;47.678;9.158;2023-05-17T19:23:40;12.00;99.90
13433;DHT22;6789;47.678;9.158;2023-05-17T19:28:47;11.90;99.90
13433;DHT22;6789;47.678;9.158;2023-05-17T19:33:53;11.80;99.90
13433;DHT22;6789;47.678;9.158;2023-05-17T19:38:45;11.60;99.90
13433;DHT22;6789;47.678;9.158;2023-05-17T19:43:51;11.60;99.90
13433;DHT22;6789;47.678;9.158;2023-05-17T19:48:43;11.50;99.90
13433;DHT22;6789;47.678;9.158;2023-05-17T19:53:35;11.40;99.90
13433;DHT22;6789;47.678;9.158;2023-05-17T19:58:44;11.30;99.90
13433;DHT22;6789;47.678;9.158;2023-05-17T20:03:37;11.30;99.90
13433;DHT22;6789;47.678;9.158;2023-05-17T20:08:41;11.20;99.90
13433;DHT22;6789;47.678;9.158;2023-05-17T20:13:47;11.10;99.90
13433;DHT22;6789;47.678;9.158;2023-05-17T20:18:51;11.00;99.90
13433;DHT22;6789;47.678;9.158;2023-05-17T20:23:57;11.00;99.90
13433;DHT22;6789;47.678;9.158;2023-05-17T20:29:07;11.00;99.90
13433;DHT22;6789;47.678;9.158;2023-05-17T20:34:14;11.00;99.90
13433;DHT22;6789;47.678;9.158;2023-05-17T20:39:06;10.90;99.90
13433;DHT22;6789;47.678;9.158;2023-05-17T20:44:12;10.90;99.90
13433;DHT22;6789;47.678;9.158;2023-05-17T20:49:11;10.90;99.90
13433;DHT22;6789;47.678;9.158;2023-05-17T20:54:04;10.80;99.90
13433;DHT22;6789;47.678;9.158;2023-05-17T20:58:57;10.70;99.90
13433;DHT22;6789;47.678;9.158;2023-05-17T21:04:05;10.60;99.90
13433;DHT22;6789;47.678;9.158;2023-05-17T21:09:16;10.60;99.90
13433;DHT22;6789;47.678;9.158;2023-05-17T21:14:23;10.60;99.90
13433;DHT22;6789;47.678;9.158;2023-05-17T21:19:29;10.50;99.90
13433;DHT22;6789;47.678;9.158;2023-05-17T21:24:35;10.60;99.90
13433;DHT22;6789;47.678;9.158;2023-05-17T21:29:28;10.50;99.90
13433;DHT22;6789;47.678;9.158;2023-05-17T21:34:21;10.50;99.90
13433;DHT22;6789;47.678;9.158;2023-05-17T21:39:26;10.40;99.90
13433;DHT22;6789;47.678;9.158;2023-05-17T21:44:32;10.40;99.90
13433;DHT22;6789;47.678;9.158;2023-05-17T21:49:25;10.40;99.90
13433;DHT22;6789;47.678;9.158;2023-05-17T21:54:23;10.30;99.90
13433;DHT22;6789;47.678;9.158;2023-05-17T21:59:16;10.30;99.90
13433;DHT22;6789;47.678;9.158;2023-05-17T22:04:08;10.20;99.90
13433;DHT22;6789;47.678;9.158;2023-05-17T22:09:14;10.20;99.90
13433;DHT22;6789;47.678;9.158;2023-05-17T22:14:39;10.20;99.90
13433;DHT22;6789;47.678;9.158;2023-05-17T22:19:42;10.20;99.90
13433;DHT22;6789;47.678;9.158;2023-05-17T22:24:36;10.20;99.90
13433;DHT22;6789;47.678;9.158;2023-05-17T22:29:42;10.20;99.90
13433;DHT22;6789;47.678;9.158;2023-05-17T22:34:49;10.20;99.90
13433;DHT22;6789;47.678;9.158;2023-05-17T22:39:47;10.10;99.90
13433;DHT22;6789;47.678;9.158;2023-05-17T22:44:40;10.00;99.90
13433;DHT22;6789;47.678;9.158;2023-05-17T22:49:32;9.90;99.90
13433;DHT22;6789;47.678;9.158;2023-05-17T22:54:35;9.90;99.90
13433;DHT22;6789;47.678;9.158;2023-05-17T22:59:28;9.80;99.90
13433;DHT22;6789;47.678;9.158;2023-05-17T23:04:43;9.90;99.90
13433;DHT22;6789;47.678;9.158;2023-05-17T23:09:44;9.80;99.90
13433;DHT22;6789;47.678;9.158;2023-05-17T23:14:38;9.70;99.90
13433;DHT22;6789;47.678;9.158;2023-05-17T23:19:44;9.70;99.90
13433;DHT22;6789;47.678;9.158;2023-05-17T23:24:36;9.70;99.90
13433;DHT22;6789;47.678;9.158;2023-05-17T23:29:33;9.70;99.90
13433;DHT22;6789;47.678;9.158;2023-05-17T23:34:40;9.70;99.90
13433;DHT22;6789;47.678;9.158;2023-05-17T23:39:47;9.70;99.90
13433;DHT22;6789;47.678;9.158;2023-05-17T23:44:52;9.60;99.90
13433;DHT22;6789;47.678;9.158;2023-05-17T23:49:59;9.60;99.90
13433;DHT22;6789;47.678;9.158;2023-05-17T23:55:06;9.60;99.90
13433;DHT22;6789;47.678;9.158;2023-05-17T23:59:58;9.50;99.90
